sensor_id;sensor_type;location;lat;lon;timestamp;pressure;altitude;pressure_sealevel;temperature;humidity
57801;BME280;43627;42.728;23.256;2023-04-03T00:00:53;94372.81;;;7.55;92.91
57801;BME280;43627;42.728;23.256;2023-04-03T00:03:19;94373.88;;;7.49;98.04
57801;BME280;43627;42.728;23.256;2023-04-03T00:05:48;94374.16;;;7.60;100.00
57801;BME280;43627;42.728;23.256;2023-04-03T00:08:15;94374.63;;;7.49;100.00
57801;BME280;43627;42.728;23.256;2023-04-03T00:10:42;94361.69;;;7.44;100.00
57801;BME280;43627;42.728;23.256;2023-04-03T00:13:09;94347.88;;;7.24;97.67
57801;BME280;43627;42.728;23.256;2023-04-03T00:15:37;94362.50;;;6.90;96.71
57801;BME280;43627;42.728;23.256;2023-04-03T00:18:04;94354.53;;;6.68;99.56
57801;BME280;43627;42.728;23.256;2023-04-03T00:20:32;94350.81;;;6.16;100.00
57801;BME280;43627;42.728;23.256;2023-04-03T00:23:00;94338.38;;;5.78;100.00
57801;BME280;43627;42.728;23.256;2023-04-03T00:25:27;94348.72;;;5.70;100.00
57801;BME280;43627;42.728;23.256;2023-04-03T00:27:54;94362.66;;;5.60;100.00
57801;BME280;43627;42.728;23.256;2023-04-03T00:30:25;94364.00;;;5.11;100.00
57801;BME280;43627;42.728;23.256;2023-04-03T00:32:52;94364.34;;;5.13;100.00
57801;BME280;43627;42.728;23.256;2023-04-03T00:35:21;94359.50;;;5.08;100.00
57801;BME280;43627;42.728;23.256;2023-04-03T00:37:51;94353.97;;;5.12;100.00
57801;BME280;43627;42.728;23.256;2023-04-03T00:40:18;94367.91;;;5.10;100.00
57801;BME280;43627;42.728;23.256;2023-04-03T00:42:46;94366.00;;;5.20;100.00
57801;BME280;43627;42.728;23.256;2023-04-03T00:45:28;94364.13;;;5.08;100.00
57801;BME280;43627;42.728;23.256;2023-04-03T00:47:56;94356.78;;;5.08;100.00
57801;BME280;43627;42.728;23.256;2023-04-03T00:50:27;94359.63;;;5.05;100.00
57801;BME280;43627;42.728;23.256;2023-04-03T00:52:55;94351.00;;;4.97;100.00
57801;BME280;43627;42.728;23.256;2023-04-03T00:55:23;94372.09;;;5.11;100.00
57801;BME280;43627;42.728;23.256;2023-04-03T00:57:49;94368.66;;;5.11;100.00
57801;BME280;43627;42.728;23.256;2023-04-03T01:00:20;94342.59;;;4.95;100.00
57801;BME280;43627;42.728;23.256;2023-04-03T01:02:50;94361.31;;;5.11;100.00
57801;BME280;43627;42.728;23.256;2023-04-03T01:05:19;94373.94;;;5.14;100.00
57801;BME280;43627;42.728;23.256;2023-04-03T01:07:48;94375.47;;;5.15;100.00
57801;BME280;43627;42.728;23.256;2023-04-03T01:10:16;94361.75;;;5.10;100.00
57801;BME280;43627;42.728;23.256;2023-04-03T01:12:46;94364.66;;;5.15;100.00
57801;BME280;43627;42.728;23.256;2023-04-03T01:15:22;94377.56;;;5.21;100.00
57801;BME280;43627;42.728;23.256;2023-04-03T01:17:54;94376.22;;;5.16;100.00
57801;BME280;43627;42.728;23.256;2023-04-03T01:20:34;94378.59;;;5.14;100.00
57801;BME280;43627;42.728;23.256;2023-04-03T01:25:40;94371.19;;;5.05;100.00
57801;BME280;43627;42.728;23.256;2023-04-03T01:28:10;94365.94;;;5.11;100.00
57801;BME280;43627;42.728;23.256;2023-04-03T01:33:43;94373.31;;;5.10;100.00
57801;BME280;43627;42.728;23.256;2023-04-03T01:36:16;94369.66;;;5.26;100.00
57801;BME280;43627;42.728;23.256;2023-04-03T01:38:44;94361.84;;;5.28;100.00
57801;BME280;43627;42.728;23.256;2023-04-03T01:41:10;94374.22;;;5.38;100.00
57801;BME280;43627;42.728;23.256;2023-04-03T01:43:37;94369.47;;;5.42;100.00
57801;BME280;43627;42.728;23.256;2023-04-03T01:46:04;94368.22;;;5.34;100.00
57801;BME280;43627;42.728;23.256;2023-04-03T01:48:30;94370.22;;;5.43;100.00
57801;BME280;43627;42.728;23.256;2023-04-03T01:50:57;94360.59;;;5.42;100.00
57801;BME280;43627;42.728;23.256;2023-04-03T01:53:24;94372.91;;;5.43;100.00
57801;BME280;43627;42.728;23.256;2023-04-03T01:55:50;94370.47;;;5.36;100.00
57801;BME280;43627;42.728;23.256;2023-04-03T01:58:17;94357.84;;;5.33;100.00
57801;BME280;43627;42.728;23.256;2023-04-03T02:00:44;94374.94;;;5.30;100.00
57801;BME280;43627;42.728;23.256;2023-04-03T02:03:11;94358.53;;;5.24;100.00
57801;BME280;43627;42.728;23.256;2023-04-03T02:05:37;94362.63;;;5.29;100.00
57801;BME280;43627;42.728;23.256;2023-04-03T02:08:04;94344.88;;;5.28;100.00
57801;BME280;43627;42.728;23.256;2023-04-03T02:10:31;94359.84;;;5.20;100.00
57801;BME280;43627;42.728;23.256;2023-04-03T02:12:58;94349.88;;;5.07;100.00
57801;BME280;43627;42.728;23.256;2023-04-03T02:15:24;94355.66;;;5.19;100.00
57801;BME280;43627;42.728;23.256;2023-04-03T02:17:52;94361.34;;;5.21;100.00
57801;BME280;43627;42.728;23.256;2023-04-03T02:20:19;94346.34;;;5.20;100.00
57801;BME280;43627;42.728;23.256;2023-04-03T02:22:46;94360.06;;;5.25;100.00
57801;BME280;43627;42.728;23.256;2023-04-03T02:25:13;94353.69;;;5.19;100.00
57801;BME280;43627;42.728;23.256;2023-04-03T02:27:40;94350.56;;;5.21;100.00
57801;BME280;43627;42.728;23.256;2023-04-03T02:30:07;94346.34;;;5.20;100.00
57801;BME280;43627;42.728;23.256;2023-04-03T02:32:36;94342.78;;;5.23;100.00
57801;BME280;43627;42.728;23.256;2023-04-03T02:35:03;94325.22;;;5.27;100.00
57801;BME280;43627;42.728;23.256;2023-04-03T02:37:30;94331.06;;;5.26;100.00
57801;BME280;43627;42.728;23.256;2023-04-03T02:39:57;94349.53;;;5.27;100.00
57801;BME280;43627;42.728;23.256;2023-04-03T02:42:23;94343.22;;;5.21;100.00
57801;BME280;43627;42.728;23.256;2023-04-03T02:44:50;94343.09;;;5.03;100.00
57801;BME280;43627;42.728;23.256;2023-04-03T02:47:17;94349.31;;;4.91;100.00
57801;BME280;43627;42.728;23.256;2023-04-03T02:49:43;94335.44;;;4.79;100.00
57801;BME280;43627;42.728;23.256;2023-04-03T02:52:13;94339.13;;;4.73;100.00
57801;BME280;43627;42.728;23.256;2023-04-03T02:54:40;94345.84;;;4.68;100.00
57801;BME280;43627;42.728;23.256;2023-04-03T02:57:07;94331.38;;;4.62;100.00
57801;BME280;43627;42.728;23.256;2023-04-03T02:59:37;94329.00;;;4.64;100.00
57801;BME280;43627;42.728;23.256;2023-04-03T03:02:09;94339.13;;;4.73;100.00
57801;BME280;43627;42.728;23.256;2023-04-03T03:04:37;94323.81;;;4.70;100.00
57801;BME280;43627;42.728;23.256;2023-04-03T03:07:04;94334.81;;;4.75;100.00
57801;BME280;43627;42.728;23.256;2023-04-03T03:09:30;94338.00;;;4.83;100.00
57801;BME280;43627;42.728;23.256;2023-04-03T03:11:57;94334.28;;;4.68;100.00
57801;BME280;43627;42.728;23.256;2023-04-03T03:14:24;94325.69;;;4.60;100.00
57801;BME280;43627;42.728;23.256;2023-04-03T03:16:50;94324.31;;;4.55;100.00
57801;BME280;43627;42.728;23.256;2023-04-03T03:19:17;94331.44;;;4.49;100.00
57801;BME280;43627;42.728;23.256;2023-04-03T03:21:44;94332.66;;;4.48;100.00
57801;BME280;43627;42.728;23.256;2023-04-03T03:24:11;94325.41;;;4.45;100.00
57801;BME280;43627;42.728;23.256;2023-04-03T03:26:38;94337.22;;;4.39;100.00
57801;BME280;43627;42.728;23.256;2023-04-03T03:29:05;94320.72;;;4.24;100.00
57801;BME280;43627;42.728;23.256;2023-04-03T03:31:32;94335.09;;;4.21;100.00
57801;BME280;43627;42.728;23.256;2023-04-03T03:33:58;94336.22;;;3.98;100.00
57801;BME280;43627;42.728;23.256;2023-04-03T03:36:25;94342.69;;;4.00;100.00
57801;BME280;43627;42.728;23.256;2023-04-03T03:38:51;94327.97;;;4.14;100.00
57801;BME280;43627;42.728;23.256;2023-04-03T03:41:18;94337.13;;;4.17;100.00
57801;BME280;43627;42.728;23.256;2023-04-03T03:43:45;94336.28;;;4.20;100.00
57801;BME280;43627;42.728;23.256;2023-04-03T03:46:12;94336.38;;;4.29;100.00
57801;BME280;43627;42.728;23.256;2023-04-03T03:48:38;94345.75;;;4.37;100.00
57801;BME280;43627;42.728;23.256;2023-04-03T03:51:05;94345.19;;;4.42;100.00
57801;BME280;43627;42.728;23.256;2023-04-03T03:53:32;94335.50;;;4.32;100.00
57801;BME280;43627;42.728;23.256;2023-04-03T03:55:59;94342.41;;;4.33;100.00
57801;BME280;43627;42.728;23.256;2023-04-03T03:58:26;94326.13;;;4.24;100.00
57801;BME280;43627;42.728;23.256;2023-04-03T04:00:53;94337.66;;;4.24;100.00
57801;BME280;43627;42.728;23.256;2023-04-03T04:03:20;94331.66;;;4.20;100.00
57801;BME280;43627;42.728;23.256;2023-04-03T04:05:47;94338.66;;;4.18;100.00
57801;BME280;43627;42.728;23.256;2023-04-03T04:08:14;94330.97;;;4.29;100.00
57801;BME280;43627;42.728;23.256;2023-04-03T04:10:41;94336.91;;;4.24;100.00
57801;BME280;43627;42.728;23.256;2023-04-03T04:13:07;94337.47;;;4.19;100.00
57801;BME280;43627;42.728;23.256;2023-04-03T04:15:34;94334.78;;;4.19;100.00
57801;BME280;43627;42.728;23.256;2023-04-03T04:18:01;94339.00;;;4.20;100.00
57801;BME280;43627;42.728;23.256;2023-04-03T04:20:28;94342.31;;;4.24;100.00
57801;BME280;43627;42.728;23.256;2023-04-03T04:22:55;94354.22;;;4.14;100.00
57801;BME280;43627;42.728;23.256;2023-04-03T04:25:21;94353.03;;;4.02;100.00
57801;BME280;43627;42.728;23.256;2023-04-03T04:27:48;94361.97;;;4.12;100.00
57801;BME280;43627;42.728;23.256;2023-04-03T04:30:15;94353.03;;;4.02;100.00
57801;BME280;43627;42.728;23.256;2023-04-03T04:32:42;94353.66;;;4.19;100.00
57801;BME280;43627;42.728;23.256;2023-04-03T04:35:09;94350.72;;;4.26;100.00
57801;BME280;43627;42.728;23.256;2023-04-03T04:37:36;94348.47;;;4.24;100.00
57801;BME280;43627;42.728;23.256;2023-04-03T04:40:03;94363.81;;;4.27;100.00
57801;BME280;43627;42.728;23.256;2023-04-03T04:42:29;94375.91;;;4.10;100.00
57801;BME280;43627;42.728;23.256;2023-04-03T04:44:56;94380.66;;;4.19;100.00
57801;BME280;43627;42.728;23.256;2023-04-03T04:47:23;94364.13;;;4.17;100.00
57801;BME280;43627;42.728;23.256;2023-04-03T04:49:49;94368.25;;;4.09;100.00
57801;BME280;43627;42.728;23.256;2023-04-03T04:52:16;94369.44;;;4.08;100.00
57801;BME280;43627;42.728;23.256;2023-04-03T04:54:43;94378.50;;;4.01;100.00
57801;BME280;43627;42.728;23.256;2023-04-03T04:57:10;94393.72;;;4.20;100.00
57801;BME280;43627;42.728;23.256;2023-04-03T04:59:37;94389.59;;;4.16;100.00
57801;BME280;43627;42.728;23.256;2023-04-03T05:02:04;94389.78;;;4.34;100.00
57801;BME280;43627;42.728;23.256;2023-04-03T05:04:31;94389.19;;;4.05;100.00
57801;BME280;43627;42.728;23.256;2023-04-03T05:06:58;94384.66;;;4.01;100.00
57801;BME280;43627;42.728;23.256;2023-04-03T05:09:25;94390.38;;;4.04;100.00
57801;BME280;43627;42.728;23.256;2023-04-03T05:11:52;94395.75;;;4.04;100.00
57801;BME280;43627;42.728;23.256;2023-04-03T05:14:19;94392.31;;;4.03;100.00
57801;BME280;43627;42.728;23.256;2023-04-03T05:16:46;94400.72;;;4.05;100.00
57801;BME280;43627;42.728;23.256;2023-04-03T05:19:16;94402.66;;;4.30;100.00
57801;BME280;43627;42.728;23.256;2023-04-03T05:21:43;94409.78;;;4.24;100.00
57801;BME280;43627;42.728;23.256;2023-04-03T05:24:09;94406.63;;;4.38;100.00
57801;BME280;43627;42.728;23.256;2023-04-03T05:26:36;94416.50;;;4.54;100.00
57801;BME280;43627;42.728;23.256;2023-04-03T05:29:03;94405.72;;;4.54;100.00
57801;BME280;43627;42.728;23.256;2023-04-03T05:31:30;94409.91;;;4.68;100.00
57801;BME280;43627;42.728;23.256;2023-04-03T05:33:57;94421.38;;;4.94;100.00
57801;BME280;43627;42.728;23.256;2023-04-03T05:36:24;94413.34;;;5.03;100.00
57801;BME280;43627;42.728;23.256;2023-04-03T05:38:52;94407.13;;;5.15;100.00
57801;BME280;43627;42.728;23.256;2023-04-03T05:41:19;94414.03;;;5.38;100.00
57801;BME280;43627;42.728;23.256;2023-04-03T05:43:47;94413.59;;;5.61;100.00
57801;BME280;43627;42.728;23.256;2023-04-03T05:46:17;94405.13;;;5.81;100.00
57801;BME280;43627;42.728;23.256;2023-04-03T05:48:44;94409.56;;;5.97;100.00
57801;BME280;43627;42.728;23.256;2023-04-03T05:51:18;94402.81;;;6.01;100.00
57801;BME280;43627;42.728;23.256;2023-04-03T05:53:46;94394.13;;;6.07;100.00
57801;BME280;43627;42.728;23.256;2023-04-03T05:56:14;94394.13;;;6.16;100.00
57801;BME280;43627;42.728;23.256;2023-04-03T05:58:40;94403.81;;;6.26;100.00
57801;BME280;43627;42.728;23.256;2023-04-03T06:01:07;94407.72;;;6.34;100.00
57801;BME280;43627;42.728;23.256;2023-04-03T06:03:34;94402.31;;;6.34;100.00
57801;BME280;43627;42.728;23.256;2023-04-03T06:06:04;94398.41;;;6.26;100.00
57801;BME280;43627;42.728;23.256;2023-04-03T06:08:31;94398.84;;;6.34;100.00
57801;BME280;43627;42.728;23.256;2023-04-03T06:10:59;94390.44;;;6.32;100.00
57801;BME280;43627;42.728;23.256;2023-04-03T06:13:26;94397.97;;;6.37;100.00
57801;BME280;43627;42.728;23.256;2023-04-03T06:15:52;94373.44;;;6.31;100.00
57801;BME280;43627;42.728;23.256;2023-04-03T06:18:19;94374.38;;;6.46;100.00
57801;BME280;43627;42.728;23.256;2023-04-03T06:20:46;94370.47;;;6.66;100.00
57801;BME280;43627;42.728;23.256;2023-04-03T06:23:12;94381.78;;;6.82;100.00
57801;BME280;43627;42.728;23.256;2023-04-03T06:25:39;94367.78;;;6.84;100.00
57801;BME280;43627;42.728;23.256;2023-04-03T06:28:07;94372.28;;;6.96;100.00
57801;BME280;43627;42.728;23.256;2023-04-03T06:30:36;94389.88;;;7.10;100.00
57801;BME280;43627;42.728;23.256;2023-04-03T06:33:04;94377.69;;;7.14;100.00
57801;BME280;43627;42.728;23.256;2023-04-03T06:35:31;94394.13;;;7.11;100.00
57801;BME280;43627;42.728;23.256;2023-04-03T06:37:58;94398.19;;;7.06;100.00
57801;BME280;43627;42.728;23.256;2023-04-03T06:40:25;94391.56;;;7.16;100.00
57801;BME280;43627;42.728;23.256;2023-04-03T06:42:52;94395.00;;;7.26;100.00
57801;BME280;43627;42.728;23.256;2023-04-03T06:45:19;94391.69;;;7.31;100.00
57801;BME280;43627;42.728;23.256;2023-04-03T06:47:46;94404.03;;;7.32;100.00
57801;BME280;43627;42.728;23.256;2023-04-03T06:50:13;94407.34;;;7.27;100.00
57801;BME280;43627;42.728;23.256;2023-04-03T06:52:41;94396.84;;;7.02;100.00
57801;BME280;43627;42.728;23.256;2023-04-03T06:55:08;94393.97;;;6.87;100.00
57801;BME280;43627;42.728;23.256;2023-04-03T06:57:35;94392.47;;;6.86;100.00
57801;BME280;43627;42.728;23.256;2023-04-03T07:00:04;94400.44;;;6.99;100.00
57801;BME280;43627;42.728;23.256;2023-04-03T07:02:31;94406.47;;;7.12;100.00
57801;BME280;43627;42.728;23.256;2023-04-03T07:04:58;94368.66;;;6.99;100.00
57801;BME280;43627;42.728;23.256;2023-04-03T07:07:25;94402.56;;;7.13;100.00
57801;BME280;43627;42.728;23.256;2023-04-03T07:09:51;94401.34;;;7.05;100.00
57801;BME280;43627;42.728;23.256;2023-04-03T07:12:18;94418.66;;;7.07;100.00
57801;BME280;43627;42.728;23.256;2023-04-03T07:14:45;94396.22;;;7.25;100.00
57801;BME280;43627;42.728;23.256;2023-04-03T07:17:12;94397.84;;;7.50;100.00
57801;BME280;43627;42.728;23.256;2023-04-03T07:19:39;94384.38;;;7.65;100.00
57801;BME280;43627;42.728;23.256;2023-04-03T07:22:05;94382.53;;;8.13;100.00
57801;BME280;43627;42.728;23.256;2023-04-03T07:24:32;94383.66;;;8.64;100.00
57801;BME280;43627;42.728;23.256;2023-04-03T07:26:59;94381.44;;;9.01;96.02
57801;BME280;43627;42.728;23.256;2023-04-03T07:29:26;94384.69;;;9.29;89.58
57801;BME280;43627;42.728;23.256;2023-04-03T07:31:53;94385.53;;;9.35;85.78
57801;BME280;43627;42.728;23.256;2023-04-03T07:34:22;94378.41;;;9.52;86.54
57801;BME280;43627;42.728;23.256;2023-04-03T07:36:48;94378.59;;;9.78;83.40
57801;BME280;43627;42.728;23.256;2023-04-03T07:39:15;94373.75;;;10.02;78.18
57801;BME280;43627;42.728;23.256;2023-04-03T07:41:41;94373.28;;;10.34;75.26
57801;BME280;43627;42.728;23.256;2023-04-03T07:44:08;94363.41;;;10.56;72.13
57801;BME280;43627;42.728;23.256;2023-04-03T07:46:37;94363.19;;;10.60;69.89
57801;BME280;43627;42.728;23.256;2023-04-03T07:49:04;94338.47;;;10.64;72.15
57801;BME280;43627;42.728;23.256;2023-04-03T07:51:31;94340.94;;;11.08;70.35
57801;BME280;43627;42.728;23.256;2023-04-03T07:53:58;94340.03;;;10.91;67.90
57801;BME280;43627;42.728;23.256;2023-04-03T07:56:25;94327.44;;;10.52;69.23
57801;BME280;43627;42.728;23.256;2023-04-03T07:58:51;94354.16;;;10.69;77.23
57801;BME280;43627;42.728;23.256;2023-04-03T08:01:18;94351.28;;;10.57;72.05
57801;BME280;43627;42.728;23.256;2023-04-03T08:03:45;94349.69;;;10.30;74.38
57801;BME280;43627;42.728;23.256;2023-04-03T08:06:12;94342.00;;;10.29;72.63
57801;BME280;43627;42.728;23.256;2023-04-03T08:08:44;94341.72;;;10.12;73.58
57801;BME280;43627;42.728;23.256;2023-04-03T08:11:11;94333.75;;;10.23;72.74
57801;BME280;43627;42.728;23.256;2023-04-03T08:13:38;94331.22;;;10.05;73.60
57801;BME280;43627;42.728;23.256;2023-04-03T08:16:10;94331.00;;;9.73;77.07
57801;BME280;43627;42.728;23.256;2023-04-03T08:18:38;94323.66;;;9.80;78.98
57801;BME280;43627;42.728;23.256;2023-04-03T08:21:07;94334.56;;;9.80;74.79
57801;BME280;43627;42.728;23.256;2023-04-03T08:23:34;94341.16;;;9.58;77.76
57801;BME280;43627;42.728;23.256;2023-04-03T08:26:15;94329.72;;;10.04;78.79
57801;BME280;43627;42.728;23.256;2023-04-03T08:28:42;94327.72;;;10.54;75.96
57801;BME280;43627;42.728;23.256;2023-04-03T08:31:14;94305.00;;;10.63;73.49
57801;BME280;43627;42.728;23.256;2023-04-03T08:33:42;94332.00;;;10.81;68.34
57801;BME280;43627;42.728;23.256;2023-04-03T08:36:18;94325.19;;;10.92;66.56
57801;BME280;43627;42.728;23.256;2023-04-03T08:38:47;94325.91;;;10.92;66.21
57801;BME280;43627;42.728;23.256;2023-04-03T08:41:20;94318.22;;;10.91;65.83
57801;BME280;43627;42.728;23.256;2023-04-03T08:44:17;94322.19;;;11.15;65.37
57801;BME280;43627;42.728;23.256;2023-04-03T08:49:45;94314.22;;;11.38;62.99
57801;BME280;43627;42.728;23.256;2023-04-03T08:52:18;94307.38;;;11.48;62.27
57801;BME280;43627;42.728;23.256;2023-04-03T08:54:51;94319.63;;;11.58;62.01
57801;BME280;43627;42.728;23.256;2023-04-03T08:57:34;94317.91;;;11.61;62.15
57801;BME280;43627;42.728;23.256;2023-04-03T09:00:23;94308.38;;;11.51;62.25
57801;BME280;43627;42.728;23.256;2023-04-03T09:02:54;94298.94;;;11.20;63.00
57801;BME280;43627;42.728;23.256;2023-04-03T09:06:03;94293.31;;;11.29;62.35
57801;BME280;43627;42.728;23.256;2023-04-03T09:16:56;94275.13;;;11.84;59.75
57801;BME280;43627;42.728;23.256;2023-04-03T09:22:00;94273.69;;;11.88;59.24
57801;BME280;43627;42.728;23.256;2023-04-03T09:24:31;94276.53;;;12.11;58.71
57801;BME280;43627;42.728;23.256;2023-04-03T09:27:04;94263.88;;;12.08;58.62
57801;BME280;43627;42.728;23.256;2023-04-03T09:29:33;94274.75;;;11.96;59.04
57801;BME280;43627;42.728;23.256;2023-04-03T09:32:21;94236.28;;;12.06;58.12
57801;BME280;43627;42.728;23.256;2023-04-03T09:34:49;94254.81;;;12.33;58.49
57801;BME280;43627;42.728;23.256;2023-04-03T09:37:34;94248.59;;;12.38;57.43
57801;BME280;43627;42.728;23.256;2023-04-03T09:40:11;94254.28;;;12.29;57.27
57801;BME280;43627;42.728;23.256;2023-04-03T09:42:57;94260.66;;;12.63;57.26
57801;BME280;43627;42.728;23.256;2023-04-03T09:45:32;94254.25;;;12.88;56.43
57801;BME280;43627;42.728;23.256;2023-04-03T09:53:41;94244.72;;;12.56;56.89
57801;BME280;43627;42.728;23.256;2023-04-03T09:59:13;94236.75;;;12.52;59.16
57801;BME280;43627;42.728;23.256;2023-04-03T10:01:43;94236.00;;;12.57;60.64
57801;BME280;43627;42.728;23.256;2023-04-03T10:04:23;94233.75;;;12.56;60.29
57801;BME280;43627;42.728;23.256;2023-04-03T10:06:54;94227.34;;;12.70;59.88
57801;BME280;43627;42.728;23.256;2023-04-03T10:09:25;94231.91;;;13.01;59.17
57801;BME280;43627;42.728;23.256;2023-04-03T10:12:06;94234.06;;;12.75;58.12
57801;BME280;43627;42.728;23.256;2023-04-03T10:14:37;94226.38;;;12.73;57.41
57801;BME280;43627;42.728;23.256;2023-04-03T10:20:09;94221.00;;;12.30;57.38
57801;BME280;43627;42.728;23.256;2023-04-03T10:42:46;94188.69;;;11.43;61.26
57801;BME280;43627;42.728;23.256;2023-04-03T10:48:18;94183.34;;;11.60;61.25
57801;BME280;43627;42.728;23.256;2023-04-03T10:54:07;94177.38;;;11.56;61.06
57801;BME280;43627;42.728;23.256;2023-04-03T10:56:56;94175.13;;;11.55;60.24
57801;BME280;43627;42.728;23.256;2023-04-03T10:59:44;94175.22;;;11.66;60.71
57801;BME280;43627;42.728;23.256;2023-04-03T11:04:59;94170.25;;;11.70;59.79
57801;BME280;43627;42.728;23.256;2023-04-03T11:07:31;94170.63;;;11.89;59.55
57801;BME280;43627;42.728;23.256;2023-04-03T11:10:12;94180.28;;;11.84;59.45
57801;BME280;43627;42.728;23.256;2023-04-03T11:12:47;94174.59;;;11.88;59.39
57801;BME280;43627;42.728;23.256;2023-04-03T11:15:17;94176.56;;;11.82;60.67
57801;BME280;43627;42.728;23.256;2023-04-03T11:17:57;94179.56;;;11.89;61.03
57801;BME280;43627;42.728;23.256;2023-04-03T11:20:31;94179.69;;;11.74;63.21
57801;BME280;43627;42.728;23.256;2023-04-03T11:23:03;94186.16;;;11.71;64.91
57801;BME280;43627;42.728;23.256;2023-04-03T11:25:33;94179.34;;;11.56;64.48
57801;BME280;43627;42.728;23.256;2023-04-03T11:28:06;94180.50;;;11.43;70.78
57801;BME280;43627;42.728;23.256;2023-04-03T11:30:57;94189.13;;;11.31;75.05
57801;BME280;43627;42.728;23.256;2023-04-03T11:38:58;94191.88;;;10.79;83.53
57801;BME280;43627;42.728;23.256;2023-04-03T11:41:29;94189.88;;;10.74;90.78
57801;BME280;43627;42.728;23.256;2023-04-03T11:44:25;94180.63;;;10.66;96.77
57801;BME280;43627;42.728;23.256;2023-04-03T11:46:55;94163.66;;;10.30;97.54
57801;BME280;43627;42.728;23.256;2023-04-03T11:49:52;94191.09;;;10.47;100.00
57801;BME280;43627;42.728;23.256;2023-04-03T11:58:03;94192.59;;;10.07;100.00
57801;BME280;43627;42.728;23.256;2023-04-03T12:22:05;94185.44;;;9.69;100.00
57801;BME280;43627;42.728;23.256;2023-04-03T12:26:47;94171.03;;;9.48;100.00
57801;BME280;43627;42.728;23.256;2023-04-03T12:32:14;94142.44;;;9.38;100.00
57801;BME280;43627;42.728;23.256;2023-04-03T12:43:36;94152.03;;;8.83;100.00
57801;BME280;43627;42.728;23.256;2023-04-03T12:45:40;94145.94;;;8.74;100.00
57801;BME280;43627;42.728;23.256;2023-04-03T12:48:14;94140.88;;;8.67;100.00
57801;BME280;43627;42.728;23.256;2023-04-03T12:50:41;94137.28;;;8.61;100.00
57801;BME280;43627;42.728;23.256;2023-04-03T12:53:16;94125.97;;;8.47;100.00
57801;BME280;43627;42.728;23.256;2023-04-03T12:55:44;94118.84;;;8.35;100.00
57801;BME280;43627;42.728;23.256;2023-04-03T12:58:24;94127.06;;;8.26;100.00
57801;BME280;43627;42.728;23.256;2023-04-03T13:01:11;94129.19;;;8.22;100.00
57801;BME280;43627;42.728;23.256;2023-04-03T13:03:43;94136.19;;;8.14;100.00
57801;BME280;43627;42.728;23.256;2023-04-03T13:06:18;94132.19;;;8.09;100.00
57801;BME280;43627;42.728;23.256;2023-04-03T13:08:52;94136.28;;;8.05;100.00
57801;BME280;43627;42.728;23.256;2023-04-03T13:11:20;94142.72;;;7.92;100.00
57801;BME280;43627;42.728;23.256;2023-04-03T13:13:56;94124.06;;;7.85;100.00
57801;BME280;43627;42.728;23.256;2023-04-03T13:16:23;94130.81;;;7.90;100.00
57801;BME280;43627;42.728;23.256;2023-04-03T13:18:52;94128.41;;;7.92;100.00
57801;BME280;43627;42.728;23.256;2023-04-03T13:21:29;94128.28;;;7.86;100.00
57801;BME280;43627;42.728;23.256;2023-04-03T13:23:59;94127.25;;;7.84;100.00
57801;BME280;43627;42.728;23.256;2023-04-03T13:26:41;94126.78;;;7.85;100.00
57801;BME280;43627;42.728;23.256;2023-04-03T13:29:24;94121.25;;;7.80;100.00
57801;BME280;43627;42.728;23.256;2023-04-03T13:31:57;94126.78;;;7.85;100.00
57801;BME280;43627;42.728;23.256;2023-04-03T13:34:27;94135.56;;;7.80;100.00
57801;BME280;43627;42.728;23.256;2023-04-03T13:37:00;94123.38;;;7.76;100.00
57801;BME280;43627;42.728;23.256;2023-04-03T13:39:29;94118.13;;;7.72;100.00
57801;BME280;43627;42.728;23.256;2023-04-03T13:41:59;94106.19;;;7.55;100.00
57801;BME280;43627;42.728;23.256;2023-04-03T13:49:41;94123.97;;;7.56;100.00
57801;BME280;43627;42.728;23.256;2023-04-03T13:54:59;94100.09;;;7.45;100.00
57801;BME280;43627;42.728;23.256;2023-04-03T13:57:29;94095.59;;;7.42;100.00
57801;BME280;43627;42.728;23.256;2023-04-03T13:59:56;94113.03;;;7.50;100.00
57801;BME280;43627;42.728;23.256;2023-04-03T14:02:33;94099.28;;;7.54;100.00
57801;BME280;43627;42.728;23.256;2023-04-03T14:05:01;94104.06;;;7.59;100.00
57801;BME280;43627;42.728;23.256;2023-04-03T14:07:30;94106.19;;;7.55;100.00
57801;BME280;43627;42.728;23.256;2023-04-03T14:09:57;94107.16;;;7.66;100.00
57801;BME280;43627;42.728;23.256;2023-04-03T14:12:30;94099.22;;;7.63;100.00
57801;BME280;43627;42.728;23.256;2023-04-03T14:15:00;94101.88;;;7.48;100.00
57801;BME280;43627;42.728;23.256;2023-04-03T14:17:27;94104.13;;;7.50;100.00
57801;BME280;43627;42.728;23.256;2023-04-03T14:19:56;94107.19;;;7.42;100.00
57801;BME280;43627;42.728;23.256;2023-04-03T14:22:26;94093.63;;;7.42;100.00
57801;BME280;43627;42.728;23.256;2023-04-03T14:24:55;94102.38;;;7.37;100.00
57801;BME280;43627;42.728;23.256;2023-04-03T14:27:23;94093.03;;;7.38;100.00
57801;BME280;43627;42.728;23.256;2023-04-03T14:29:52;94095.47;;;7.36;100.00
57801;BME280;43627;42.728;23.256;2023-04-03T14:32:22;94082.84;;;7.33;100.00
57801;BME280;43627;42.728;23.256;2023-04-03T14:34:50;94085.56;;;7.33;100.00
57801;BME280;43627;42.728;23.256;2023-04-03T14:37:36;94086.47;;;7.30;100.00
57801;BME280;43627;42.728;23.256;2023-04-03T14:40:04;94087.78;;;7.35;100.00
57801;BME280;43627;42.728;23.256;2023-04-03T14:42:34;94090.97;;;7.33;100.00
57801;BME280;43627;42.728;23.256;2023-04-03T14:45:05;94072.63;;;7.28;100.00
57801;BME280;43627;42.728;23.256;2023-04-03T14:47:32;94088.31;;;7.24;100.00
57801;BME280;43627;42.728;23.256;2023-04-03T14:50:01;94072.38;;;7.17;100.00
57801;BME280;43627;42.728;23.256;2023-04-03T14:52:31;94078.09;;;7.19;100.00
57801;BME280;43627;42.728;23.256;2023-04-03T14:54:58;94075.84;;;7.18;100.00
57801;BME280;43627;42.728;23.256;2023-04-03T14:57:28;94073.31;;;7.14;100.00